^^
Station Historical Data
Daily Summary for January 31, 2018 Units:  Both    English   Metric
« Previous Day
Next Day »
Daily Weekly Monthly Yearly Custom
  High: Low: Average:
Temperature: TemperatureF °F /  -17.8 °C 59.4 °F /  15.2 °C 79.1 °F /  26.2 °C
Dew Point: DewpointF °F /  -17.8 °C 32.5 °F /  0.3 °C 37.9 °F /  3.3 °C
Humidity: Humidity% 11% 25%
Wind Speed: WindSpeedMPHmph /  0km/h - 1.5mph /  2.4km/h
Wind Gust: WindSpeedGustMPHmph /  0km/h - -
Wind- - SW
Pressure: PressureIn in /  0 hPa 29.45 in /  997.2 hPa -
Precipitation: 0.00 in /  0 mm    
Historical Graphs
 
 
Tabular Data for January 31, 2018
Time Temperature Dew Point Pressure Wind Wind Speed Wind Gust Humidity Rainfall Rate (Hourly) solar Conditions
TemperatureF °F /  -17.8 °C DewpointF °F /  -17.8 °C PressureInin /  0hPa Calm     Humidity% HourlyPrecipInin /  0mm SolarRadiationWatts/m^2 W/m2 Conditions
00:02 73.8 °F /  23.2 °C 34.7 °F /  1.5 °C 29.63in /  1003.3hPa Calm   1.0mph /  1.6km/h 24% 0.00in /  0mm 0.0 W/m2
00:08 73.6 °F /  23.1 °C 34.5 °F /  1.4 °C 29.63in /  1003.3hPa Calm   2.0mph /  3.2km/h 24% 0.00in /  0mm 0.0 W/m2
00:13 73.2 °F /  22.9 °C 34.3 °F /  1.3 °C 29.62in /  1002.9hPa Calm     24% 0.00in /  0mm 0.0 W/m2
00:18 73.0 °F /  22.8 °C 34.2 °F /  1.2 °C 29.62in /  1002.9hPa Calm     24% 0.00in /  0mm 0.0 W/m2
00:24 72.9 °F /  22.7 °C 35.1 °F /  1.7 °C 29.62in /  1002.9hPa Calm     25% 0.00in /  0mm 0.0 W/m2
00:29 72.5 °F /  22.5 °C 34.7 °F /  1.5 °C 29.62in /  1002.9hPa Calm   1.0mph /  1.6km/h 25% 0.00in /  0mm 0.0 W/m2
00:34 72.1 °F /  22.3 °C 34.3 °F /  1.3 °C 29.63in /  1003.3hPa NNW 2.9mph /  4.7km/h 4.0mph /  6.4km/h 25% 0.00in /  0mm 0.0 W/m2
00:40 72.0 °F /  22.2 °C 35.2 °F /  1.8 °C 29.63in /  1003.3hPa West 0.9mph /  1.4km/h 8.0mph /  12.9km/h 26% 0.00in /  0mm 0.0 W/m2
00:45 72.0 °F /  22.2 °C 35.2 °F /  1.8 °C 29.63in /  1003.3hPa North 2.0mph /  3.2km/h 7.0mph /  11.3km/h 26% 0.00in /  0mm 0.0 W/m2
00:50 72.1 °F /  22.3 °C 34.3 °F /  1.3 °C 29.62in /  1002.9hPa NNE 2.9mph /  4.7km/h 6.0mph /  9.7km/h 25% 0.00in /  0mm 0.0 W/m2
00:55 72.3 °F /  22.4 °C 34.5 °F /  1.4 °C 29.62in /  1002.9hPa Calm     25% 0.00in /  0mm 0.0 W/m2
01:00 72.3 °F /  22.4 °C 34.5 °F /  1.4 °C 29.62in /  1002.9hPa Calm     25% 0.00in /  0mm 0.0 W/m2
01:06 72.1 °F /  22.3 °C 35.4 °F /  1.9 °C 29.63in /  1003.3hPa Calm   1.0mph /  1.6km/h 26% 0.00in /  0mm 0.0 W/m2
01:11 72.0 °F /  22.2 °C 35.2 °F /  1.8 °C 29.63in /  1003.3hPa NNW 2.0mph /  3.2km/h 3.0mph /  4.8km/h 26% 0.00in /  0mm 0.0 W/m2
01:16 71.8 °F /  22.1 °C 35.1 °F /  1.7 °C 29.63in /  1003.3hPa NNE 2.9mph /  4.7km/h 4.0mph /  6.4km/h 26% 0.00in /  0mm 0.0 W/m2
01:22 71.8 °F /  22.1 °C 35.1 °F /  1.7 °C 29.62in /  1002.9hPa Calm     26% 0.00in /  0mm 0.0 W/m2
01:27 71.6 °F /  22 °C 34.9 °F /  1.6 °C 29.62in /  1002.9hPa SSE 0.9mph /  1.4km/h 2.0mph /  3.2km/h 26% 0.00in /  0mm 0.0 W/m2
01:32 71.4 °F /  21.9 °C 34.7 °F /  1.5 °C 29.62in /  1002.9hPa Calm   4.0mph /  6.4km/h 26% 0.00in /  0mm 0.0 W/m2
01:37 71.2 °F /  21.8 °C 34.5 °F /  1.4 °C 29.63in /  1003.3hPa Calm     26% 0.00in /  0mm 0.0 W/m2
01:42 71.1 °F /  21.7 °C 35.4 °F /  1.9 °C 29.63in /  1003.3hPa SE 0.9mph /  1.4km/h 1.0mph /  1.6km/h 27% 0.00in /  0mm 0.0 W/m2
01:47 70.9 °F /  21.6 °C 35.2 °F /  1.8 °C 29.62in /  1002.9hPa Calm     27% 0.00in /  0mm 0.0 W/m2
01:52 70.5 °F /  21.4 °C 35.8 °F /  2.1 °C 29.62in /  1002.9hPa Calm     28% 0.00in /  0mm 0.0 W/m2
01:57 70.3 °F /  21.3 °C 35.6 °F /  2 °C 29.62in /  1002.9hPa Calm   1.0mph /  1.6km/h 28% 0.00in /  0mm 0.0 W/m2
02:03 70.2 °F /  21.2 °C 36.5 °F /  2.5 °C 29.62in /  1002.9hPa Calm     29% 0.00in /  0mm 0.0 W/m2
02:08 70.0 °F /  21.1 °C 37.0 °F /  2.8 °C 29.61in /  1002.6hPa Calm   1.0mph /  1.6km/h 30% 0.00in /  0mm 0.0 W/m2
02:13 69.6 °F /  20.9 °C 36.9 °F /  2.7 °C 29.61in /  1002.6hPa Calm     30% 0.00in /  0mm 0.0 W/m2
02:18 69.4 °F /  20.8 °C 37.4 °F /  3 °C 29.61in /  1002.6hPa Calm     31% 0.00in /  0mm 0.0 W/m2
02:23 69.3 °F /  20.7 °C 37.4 °F /  3 °C 29.61in /  1002.6hPa Calm     31% 0.00in /  0mm 0.0 W/m2
02:28 69.1 °F /  20.6 °C 37.9 °F /  3.3 °C 29.61in /  1002.6hPa Calm     32% 0.00in /  0mm 0.0 W/m2
02:33 68.7 °F /  20.4 °C 37.6 °F /  3.1 °C 29.61in /  1002.6hPa Calm     32% 0.00in /  0mm 0.0 W/m2
02:38 68.5 °F /  20.3 °C 37.6 °F /  3.1 °C 29.61in /  1002.6hPa Calm     32% 0.00in /  0mm 0.0 W/m2
02:44 68.4 °F /  20.2 °C 37.4 °F /  3 °C 29.61in /  1002.6hPa Calm     32% 0.00in /  0mm 0.0 W/m2
02:49 68.2 °F /  20.1 °C 37.2 °F /  2.9 °C 29.61in /  1002.6hPa Calm     32% 0.00in /  0mm 0.0 W/m2
02:54 67.8 °F /  19.9 °C 36.9 °F /  2.7 °C 29.61in /  1002.6hPa Calm     32% 0.00in /  0mm 0.0 W/m2
02:59 67.5 °F /  19.7 °C 37.4 °F /  3 °C 29.61in /  1002.6hPa Calm     33% 0.00in /  0mm 0.0 W/m2
03:04 67.3 °F /  19.6 °C 37.9 °F /  3.3 °C 29.61in /  1002.6hPa Calm     34% 0.00in /  0mm 0.0 W/m2
03:09 66.9 °F /  19.4 °C 37.6 °F /  3.1 °C 29.61in /  1002.6hPa Calm     34% 0.00in /  0mm 0.0 W/m2
03:15 66.6 °F /  19.2 °C 36.5 °F /  2.5 °C 29.60in /  1002.3hPa Calm     33% 0.00in /  0mm 0.0 W/m2
03:21 66.4 °F /  19.1 °C 37.2 °F /  2.9 °C 29.60in /  1002.3hPa Calm     34% 0.00in /  0mm 0.0 W/m2
03:26 66.0 °F /  18.9 °C 36.9 °F /  2.7 °C 29.60in /  1002.3hPa Calm     34% 0.00in /  0mm 0.0 W/m2
03:31 65.7 °F /  18.7 °C 36.5 °F /  2.5 °C 29.60in /  1002.3hPa SE 0.9mph /  1.4km/h 1.0mph /  1.6km/h 34% 0.00in /  0mm 0.0 W/m2
03:36 65.3 °F /  18.5 °C 36.9 °F /  2.7 °C 29.59in /  1001.9hPa Calm   1.0mph /  1.6km/h 35% 0.00in /  0mm 0.0 W/m2
03:41 65.1 °F /  18.4 °C 36.9 °F /  2.7 °C 29.59in /  1001.9hPa Calm     35% 0.00in /  0mm 0.0 W/m2
03:46 64.9 °F /  18.3 °C 37.4 °F /  3 °C 29.59in /  1001.9hPa Calm     36% 0.00in /  0mm 0.0 W/m2
03:51 64.8 °F /  18.2 °C 37.2 °F /  2.9 °C 29.59in /  1001.9hPa Calm   1.0mph /  1.6km/h 36% 0.00in /  0mm 0.0 W/m2
03:57 64.6 °F /  18.1 °C 37.0 °F /  2.8 °C 29.59in /  1001.9hPa Calm     36% 0.00in /  0mm 0.0 W/m2
04:02 64.2 °F /  17.9 °C 37.4 °F /  3 °C 29.59in /  1001.9hPa Calm     37% 0.00in /  0mm 0.0 W/m2
04:07 64.0 °F /  17.8 °C 37.2 °F /  2.9 °C 29.59in /  1001.9hPa Calm     37% 0.00in /  0mm 0.0 W/m2
04:13 63.9 °F /  17.7 °C 37.8 °F /  3.2 °C 29.59in /  1001.9hPa Calm     38% 0.00in /  0mm 0.0 W/m2
04:18 63.7 °F /  17.6 °C 37.6 °F /  3.1 °C 29.59in /  1001.9hPa Calm     38% 0.00in /  0mm 0.0 W/m2
04:23 63.5 °F /  17.5 °C 38.1 °F /  3.4 °C 29.59in /  1001.9hPa Calm     39% 0.00in /  0mm 0.0 W/m2
04:28 63.1 °F /  17.3 °C 37.8 °F /  3.2 °C 29.59in /  1001.9hPa Calm     39% 0.00in /  0mm 0.0 W/m2
04:33 63.0 °F /  17.2 °C 38.3 °F /  3.5 °C 29.59in /  1001.9hPa Calm     40% 0.00in /  0mm 0.0 W/m2
04:39 62.6 °F /  17 °C 38.5 °F /  3.6 °C 29.59in /  1001.9hPa Calm     41% 0.00in /  0mm 0.0 W/m2
04:44 62.4 °F /  16.9 °C 38.5 °F /  3.6 °C 29.59in /  1001.9hPa Calm     41% 0.00in /  0mm 0.0 W/m2
04:49 62.2 °F /  16.8 °C 38.3 °F /  3.5 °C 29.59in /  1001.9hPa Calm   2.0mph /  3.2km/h 41% 0.00in /  0mm 0.0 W/m2
04:55 62.1 °F /  16.7 °C 37.4 °F /  3 °C 29.59in /  1001.9hPa ENE 2.0mph /  3.2km/h 3.0mph /  4.8km/h 40% 0.00in /  0mm 0.0 W/m2
05:00 61.9 °F /  16.6 °C 36.7 °F /  2.6 °C 29.59in /  1001.9hPa Calm   2.0mph /  3.2km/h 39% 0.00in /  0mm 0.0 W/m2
05:05 61.9 °F /  16.6 °C 37.2 °F /  2.9 °C 29.59in /  1001.9hPa Calm     40% 0.00in /  0mm 0.0 W/m2
05:11 61.5 °F /  16.4 °C 37.0 °F /  2.8 °C 29.59in /  1001.9hPa Calm   2.0mph /  3.2km/h 40% 0.00in /  0mm 0.0 W/m2
05:16 61.5 °F /  16.4 °C 37.6 °F /  3.1 °C 29.59in /  1001.9hPa Calm     41% 0.00in /  0mm 0.0 W/m2
05:21 61.3 °F /  16.3 °C 38.1 °F /  3.4 °C 29.59in /  1001.9hPa East 2.0mph /  3.2km/h 3.0mph /  4.8km/h 42% 0.00in /  0mm 0.0 W/m2
05:27 61.2 °F /  16.2 °C 37.2 °F /  2.9 °C 29.59in /  1001.9hPa Calm   1.0mph /  1.6km/h 41% 0.00in /  0mm 0.0 W/m2
05:32 61.2 °F /  16.2 °C 37.2 °F /  2.9 °C 29.59in /  1001.9hPa SE 2.0mph /  3.2km/h 3.0mph /  4.8km/h 41% 0.00in /  0mm 0.0 W/m2
05:37 61.2 °F /  16.2 °C 37.2 °F /  2.9 °C 29.59in /  1001.9hPa Calm   2.0mph /  3.2km/h 41% 0.00in /  0mm 0.0 W/m2
05:42 61.2 °F /  16.2 °C 37.2 °F /  2.9 °C 29.59in /  1001.9hPa Calm     41% 0.00in /  0mm 0.0 W/m2
05:47 61.0 °F /  16.1 °C 37.8 °F /  3.2 °C 29.60in /  1002.3hPa Calm     42% 0.00in /  0mm 0.0 W/m2
05:53 60.8 °F /  16 °C 38.1 °F /  3.4 °C 29.60in /  1002.3hPa Calm   2.0mph /  3.2km/h 43% 0.00in /  0mm 0.0 W/m2
05:58 60.6 °F /  15.9 °C 37.9 °F /  3.3 °C 29.59in /  1001.9hPa Calm     43% 0.00in /  0mm 0.0 W/m2
06:03 60.6 °F /  15.9 °C 37.9 °F /  3.3 °C 29.60in /  1002.3hPa Calm     43% 0.00in /  0mm 0.0 W/m2
06:09 60.4 °F /  15.8 °C 37.2 °F /  2.9 °C 29.59in /  1001.9hPa Calm     42% 0.00in /  0mm 0.0 W/m2
06:14 60.3 °F /  15.7 °C 37.0 °F /  2.8 °C 29.60in /  1002.3hPa Calm   2.0mph /  3.2km/h 42% 0.00in /  0mm 0.0 W/m2
06:19 60.1 °F /  15.6 °C 37.6 °F /  3.1 °C 29.60in /  1002.3hPa Calm   3.0mph /  4.8km/h 43% 0.00in /  0mm 0.0 W/m2
06:24 59.9 °F /  15.5 °C 37.4 °F /  3 °C 29.60in /  1002.3hPa Calm   1.0mph /  1.6km/h 43% 0.00in /  0mm 0.0 W/m2
06:29 59.7 °F /  15.4 °C 37.2 °F /  2.9 °C 29.60in /  1002.3hPa Calm   1.0mph /  1.6km/h 43% 0.00in /  0mm 0.0 W/m2
06:34 59.5 °F /  15.3 °C 37.0 °F /  2.8 °C 29.60in /  1002.3hPa Calm   4.0mph /  6.4km/h 43% 0.00in /  0mm 5.0 W/m2
06:39 59.5 °F /  15.3 °C 37.0 °F /  2.8 °C 29.61in /  1002.6hPa Calm   1.0mph /  1.6km/h 43% 0.00in /  0mm 7.0 W/m2
06:44 59.4 °F /  15.2 °C 36.9 °F /  2.7 °C 29.61in /  1002.6hPa East 0.9mph /  1.4km/h 1.0mph /  1.6km/h 43% 0.00in /  0mm 7.0 W/m2
06:50 59.4 °F /  15.2 °C 37.9 °F /  3.3 °C 29.61in /  1002.6hPa SE 2.0mph /  3.2km/h 4.0mph /  6.4km/h 45% 0.00in /  0mm 11.0 W/m2
06:55 59.4 °F /  15.2 °C 38.7 °F /  3.7 °C 29.61in /  1002.6hPa Calm     46% 0.00in /  0mm 14.0 W/m2
07:00 59.4 °F /  15.2 °C 39.2 °F /  4 °C 29.61in /  1002.6hPa Calm   4.0mph /  6.4km/h 47% 0.00in /  0mm 14.0 W/m2
07:06 59.5 °F /  15.3 °C 39.4 °F /  4.1 °C 29.61in /  1002.6hPa Calm   1.0mph /  1.6km/h 47% 0.00in /  0mm 18.0 W/m2
07:11 59.5 °F /  15.3 °C 39.4 °F /  4.1 °C 29.61in /  1002.6hPa Calm     47% 0.00in /  0mm 21.0 W/m2
07:16 59.5 °F /  15.3 °C 39.4 °F /  4.1 °C 29.61in /  1002.6hPa Calm   1.0mph /  1.6km/h 47% 0.00in /  0mm 21.0 W/m2
07:22 59.9 °F /  15.5 °C 39.6 °F /  4.2 °C 29.61in /  1002.6hPa Calm   1.0mph /  1.6km/h 47% 0.00in /  0mm 26.0 W/m2
07:27 60.1 °F /  15.6 °C 39.7 °F /  4.3 °C 29.61in /  1002.6hPa Calm     47% 0.00in /  0mm 28.0 W/m2
07:29 60.1 °F /  15.6 °C 40.3 °F /  4.6 °C 29.61in /  1002.6hPa Calm     48% 0.00in /  0mm 30.0 W/m2
07:34 60.4 °F /  15.8 °C 40.6 °F /  4.8 °C 29.61in /  1002.6hPa Calm     48% 0.00in /  0mm 32.0 W/m2
07:39 61.0 °F /  16.1 °C 41.2 °F /  5.1 °C 29.61in /  1002.6hPa Calm     48% 0.00in /  0mm 35.0 W/m2
07:44 61.3 °F /  16.3 °C 41.0 °F /  5 °C 29.61in /  1002.6hPa SE 0.9mph /  1.4km/h 2.0mph /  3.2km/h 47% 0.00in /  0mm 39.0 W/m2
07:49 62.2 °F /  16.8 °C 40.1 °F /  4.5 °C 29.61in /  1002.6hPa Calm     44% 0.00in /  0mm 56.0 W/m2
07:54 62.8 °F /  17.1 °C 40.5 °F /  4.7 °C 29.61in /  1002.6hPa Calm     44% 0.00in /  0mm 49.0 W/m2
07:59 63.1 °F /  17.3 °C 40.8 °F /  4.9 °C 29.61in /  1002.6hPa Calm     44% 0.00in /  0mm 63.0 W/m2
08:05 63.9 °F /  17.7 °C 40.3 °F /  4.6 °C 29.60in /  1002.3hPa Calm     42% 0.00in /  0mm 107.0 W/m2
08:10 64.6 °F /  18.1 °C 41.5 °F /  5.3 °C 29.60in /  1002.3hPa Calm     43% 0.00in /  0mm 308.0 W/m2
08:16 65.8 °F /  18.8 °C 38.8 °F /  3.8 °C 29.60in /  1002.3hPa SE 0.9mph /  1.4km/h 7.0mph /  11.3km/h 37% 0.00in /  0mm 378.0 W/m2
08:21 67.6 °F /  19.8 °C 39.0 °F /  3.9 °C 29.59in /  1001.9hPa ESE 2.9mph /  4.7km/h 9.0mph /  14.5km/h 35% 0.00in /  0mm 315.0 W/m2
08:26 69.6 °F /  20.9 °C 39.2 °F /  4 °C 29.60in /  1002.3hPa SSW 2.9mph /  4.7km/h 7.0mph /  11.3km/h 33% 0.00in /  0mm 417.0 W/m2
08:31 71.2 °F /  21.8 °C 39.9 °F /  4.4 °C 29.60in /  1002.3hPa SSW 0.9mph /  1.4km/h 6.0mph /  9.7km/h 32% 0.00in /  0mm 422.0 W/m2
08:36 72.5 °F /  22.5 °C 39.4 °F /  4.1 °C 29.60in /  1002.3hPa SW 4.9mph /  7.9km/h 8.0mph /  12.9km/h 30% 0.00in /  0mm 489.0 W/m2
08:41 73.4 °F /  23 °C 40.1 °F /  4.5 °C 29.60in /  1002.3hPa Calm   5.0mph /  8km/h 30% 0.00in /  0mm 450.0 W/m2
08:46 74.3 °F /  23.5 °C 39.9 °F /  4.4 °C 29.59in /  1001.9hPa SW 0.9mph /  1.4km/h 7.0mph /  11.3km/h 29% 0.00in /  0mm 436.0 W/m2
08:51 75.0 °F /  23.9 °C 39.7 °F /  4.3 °C 29.59in /  1001.9hPa SSW 2.9mph /  4.7km/h 6.0mph /  9.7km/h 28% 0.00in /  0mm 515.0 W/m2
08:56 75.9 °F /  24.4 °C 39.6 °F /  4.2 °C 29.59in /  1001.9hPa ESE 0.9mph /  1.4km/h 3.0mph /  4.8km/h 27% 0.00in /  0mm 524.0 W/m2
09:01 76.6 °F /  24.8 °C 39.2 °F /  4 °C 29.59in /  1001.9hPa Calm   6.0mph /  9.7km/h 26% 0.00in /  0mm 564.0 W/m2
09:06 77.0 °F /  25 °C 40.5 °F /  4.7 °C 29.59in /  1001.9hPa WSW 2.0mph /  3.2km/h 9.0mph /  14.5km/h 27% 0.00in /  0mm 584.0 W/m2
09:12 76.8 °F /  24.9 °C 40.3 °F /  4.6 °C 29.59in /  1001.9hPa SSW 4.9mph /  7.9km/h 6.0mph /  9.7km/h 27% 0.00in /  0mm 603.0 W/m2
09:18 77.4 °F /  25.2 °C 39.7 °F /  4.3 °C 29.59in /  1001.9hPa West 0.9mph /  1.4km/h 6.0mph /  9.7km/h 26% 0.00in /  0mm 624.0 W/m2
09:23 77.5 °F /  25.3 °C 39.9 °F /  4.4 °C 29.59in /  1001.9hPa SSW 4.9mph /  7.9km/h 6.0mph /  9.7km/h 26% 0.00in /  0mm 631.0 W/m2
09:28 78.1 °F /  25.6 °C 40.5 °F /  4.7 °C 29.59in /  1001.9hPa WSW 2.9mph /  4.7km/h 4.0mph /  6.4km/h 26% 0.00in /  0mm 657.0 W/m2
09:33 78.3 °F /  25.7 °C 40.6 °F /  4.8 °C 29.59in /  1001.9hPa WSW 4.9mph /  7.9km/h 6.0mph /  9.7km/h 26% 0.00in /  0mm 675.0 W/m2
09:38 78.6 °F /  25.9 °C 40.8 °F /  4.9 °C 29.59in /  1001.9hPa South 0.9mph /  1.4km/h 6.0mph /  9.7km/h 26% 0.00in /  0mm 693.0 W/m2
09:43 79.2 °F /  26.2 °C 41.4 °F /  5.2 °C 29.59in /  1001.9hPa SW 2.0mph /  3.2km/h 5.0mph /  8km/h 26% 0.00in /  0mm 714.0 W/m2
09:48 79.0 °F /  26.1 °C 40.1 °F /  4.5 °C 29.58in /  1001.6hPa WSW 2.9mph /  4.7km/h 6.0mph /  9.7km/h 25% 0.00in /  0mm 726.0 W/m2
09:53 79.3 °F /  26.3 °C 40.5 °F /  4.7 °C 29.58in /  1001.6hPa SSW 2.0mph /  3.2km/h 6.0mph /  9.7km/h 25% 0.00in /  0mm 745.0 W/m2
09:58 79.9 °F /  26.6 °C 41.0 °F /  5 °C 29.58in /  1001.6hPa SSW 0.9mph /  1.4km/h 5.0mph /  8km/h 25% 0.00in /  0mm 761.0 W/m2
10:03 80.4 °F /  26.9 °C 40.3 °F /  4.6 °C 29.58in /  1001.6hPa SW 6.0mph /  9.7km/h 6.0mph /  9.7km/h 24% 0.00in /  0mm 777.0 W/m2
10:08 81.0 °F /  27.2 °C 39.7 °F /  4.3 °C 29.58in /  1001.6hPa West 2.9mph /  4.7km/h 7.0mph /  11.3km/h 23% 0.00in /  0mm 793.0 W/m2
10:13 81.0 °F /  27.2 °C 39.7 °F /  4.3 °C 29.58in /  1001.6hPa Calm   5.0mph /  8km/h 23% 0.00in /  0mm 807.0 W/m2
10:19 81.7 °F /  27.6 °C 40.3 °F /  4.6 °C 29.58in /  1001.6hPa SSE 0.9mph /  1.4km/h 10.0mph /  16.1km/h 23% 0.00in /  0mm 823.0 W/m2
10:24 82.0 °F /  27.8 °C 40.6 °F /  4.8 °C 29.58in /  1001.6hPa SW 2.0mph /  3.2km/h 4.0mph /  6.4km/h 23% 0.00in /  0mm 840.0 W/m2
10:30 82.6 °F /  28.1 °C 39.9 °F /  4.4 °C 29.58in /  1001.6hPa West 0.9mph /  1.4km/h 5.0mph /  8km/h 22% 0.00in /  0mm 863.0 W/m2
10:35 82.8 °F /  28.2 °C 40.1 °F /  4.5 °C 29.58in /  1001.6hPa Calm   5.0mph /  8km/h 22% 0.00in /  0mm 879.0 W/m2
10:40 82.9 °F /  28.3 °C 40.1 °F /  4.5 °C 29.57in /  1001.2hPa WSW 2.0mph /  3.2km/h 5.0mph /  8km/h 22% 0.00in /  0mm 904.0 W/m2
10:45 83.8 °F /  28.8 °C 41.0 °F /  5 °C 29.57in /  1001.2hPa SE 0.9mph /  1.4km/h 7.0mph /  11.3km/h 22% 0.00in /  0mm 916.0 W/m2
10:50 84.2 °F /  29 °C 41.2 °F /  5.1 °C 29.57in /  1001.2hPa West 2.0mph /  3.2km/h 5.0mph /  8km/h 22% 0.00in /  0mm 448.0 W/m2
10:55 84.6 °F /  29.2 °C 40.3 °F /  4.6 °C 29.57in /  1001.2hPa North 0.9mph /  1.4km/h 4.0mph /  6.4km/h 21% 0.00in /  0mm 865.0 W/m2
11:01 85.6 °F /  29.8 °C 39.9 °F /  4.4 °C 29.57in /  1001.2hPa WSW 0.9mph /  1.4km/h 5.0mph /  8km/h 20% 0.00in /  0mm 933.0 W/m2
11:06 85.5 °F /  29.7 °C 39.7 °F /  4.3 °C 29.57in /  1001.2hPa WNW 4.9mph /  7.9km/h 8.0mph /  12.9km/h 20% 0.00in /  0mm 940.0 W/m2
11:11 85.3 °F /  29.6 °C 41.0 °F /  5 °C 29.57in /  1001.2hPa South 0.9mph /  1.4km/h 7.0mph /  11.3km/h 21% 0.00in /  0mm 868.0 W/m2
11:17 85.6 °F /  29.8 °C 39.9 °F /  4.4 °C 29.57in /  1001.2hPa West 2.0mph /  3.2km/h 7.0mph /  11.3km/h 20% 0.00in /  0mm 960.0 W/m2
11:22 86.2 °F /  30.1 °C 40.5 °F /  4.7 °C 29.57in /  1001.2hPa SE 0.9mph /  1.4km/h 3.0mph /  4.8km/h 20% 0.00in /  0mm 984.0 W/m2
11:27 87.1 °F /  30.6 °C 39.7 °F /  4.3 °C 29.56in /  1000.9hPa West 0.9mph /  1.4km/h 5.0mph /  8km/h 19% 0.00in /  0mm 995.0 W/m2
11:32 87.4 °F /  30.8 °C 40.1 °F /  4.5 °C 29.56in /  1000.9hPa South 8.9mph /  14.3km/h 17.0mph /  27.4km/h 19% 0.00in /  0mm 995.0 W/m2
11:37 87.4 °F /  30.8 °C 40.1 °F /  4.5 °C 29.56in /  1000.9hPa Calm   5.0mph /  8km/h 19% 0.00in /  0mm 1005.0 W/m2
11:42 88.0 °F /  31.1 °C 40.6 °F /  4.8 °C 29.56in /  1000.9hPa SE 0.9mph /  1.4km/h 4.0mph /  6.4km/h 19% 0.00in /  0mm 1013.0 W/m2
11:47 88.2 °F /  31.2 °C 40.6 °F /  4.8 °C 29.56in /  1000.9hPa SSW 2.9mph /  4.7km/h 7.0mph /  11.3km/h 19% 0.00in /  0mm 1011.0 W/m2
11:52 88.5 °F /  31.4 °C 39.6 °F /  4.2 °C 29.56in /  1000.9hPa SW 4.0mph /  6.4km/h 4.0mph /  6.4km/h 18% 0.00in /  0mm 1013.0 W/m2
11:58 88.7 °F /  31.5 °C 39.7 °F /  4.3 °C 29.56in /  1000.9hPa SW 2.9mph /  4.7km/h 8.0mph /  12.9km/h 18% 0.00in /  0mm 1025.0 W/m2
12:03 88.5 °F /  31.4 °C 39.6 °F /  4.2 °C 29.56in /  1000.9hPa WSW 4.0mph /  6.4km/h 7.0mph /  11.3km/h 18% 0.00in /  0mm 1027.0 W/m2
12:09 88.5 °F /  31.4 °C 39.6 °F /  4.2 °C 29.56in /  1000.9hPa Calm   2.0mph /  3.2km/h 18% 0.00in /  0mm 1025.0 W/m2
12:14 89.2 °F /  31.8 °C 40.3 °F /  4.6 °C 29.56in /  1000.9hPa West 4.9mph /  7.9km/h 9.0mph /  14.5km/h 18% 0.00in /  0mm 1039.0 W/m2
12:19 89.2 °F /  31.8 °C 40.3 °F /  4.6 °C 29.56in /  1000.9hPa SW 2.0mph /  3.2km/h 9.0mph /  14.5km/h 18% 0.00in /  0mm 1046.0 W/m2
12:24 89.2 °F /  31.8 °C 40.3 °F /  4.6 °C 29.56in /  1000.9hPa NNW 0.9mph /  1.4km/h 4.0mph /  6.4km/h 18% 0.00in /  0mm 1053.0 W/m2
12:29 89.8 °F /  32.1 °C 39.2 °F /  4 °C 29.55in /  1000.6hPa North 4.0mph /  6.4km/h 6.0mph /  9.7km/h 17% 0.00in /  0mm 1056.0 W/m2
12:34 90.5 °F /  32.5 °C 39.7 °F /  4.3 °C 29.55in /  1000.6hPa Calm   2.0mph /  3.2km/h 17% 0.00in /  0mm 1069.0 W/m2
12:39 91.2 °F /  32.9 °C 38.8 °F /  3.8 °C 29.55in /  1000.6hPa WSW 4.0mph /  6.4km/h 9.0mph /  14.5km/h 16% 0.00in /  0mm 925.0 W/m2
12:45 91.8 °F /  33.2 °C 35.8 °F /  2.1 °C 29.55in /  1000.6hPa NNE 6.0mph /  9.7km/h 7.0mph /  11.3km/h 14% 0.00in /  0mm 1076.0 W/m2
12:50 91.9 °F /  33.3 °C 34.2 °F /  1.2 °C 29.55in /  1000.6hPa NNW 2.9mph /  4.7km/h 4.0mph /  6.4km/h 13% 0.00in /  0mm 1048.0 W/m2
12:55 92.5 °F /  33.6 °C 32.5 °F /  0.3 °C 29.55in /  1000.6hPa WSW 2.0mph /  3.2km/h 6.0mph /  9.7km/h 12% 0.00in /  0mm 1065.0 W/m2
13:00 92.8 °F /  33.8 °C 34.7 °F /  1.5 °C 29.55in /  1000.6hPa West 0.9mph /  1.4km/h 5.0mph /  8km/h 13% 0.00in /  0mm 1076.0 W/m2
13:05 93.0 °F /  33.9 °C 36.9 °F /  2.7 °C 29.54in /  1000.2hPa WSW 4.0mph /  6.4km/h 4.0mph /  6.4km/h 14% 0.00in /  0mm 1074.0 W/m2
13:10 92.7 °F /  33.7 °C 36.5 °F /  2.5 °C 29.54in /  1000.2hPa West 4.9mph /  7.9km/h 5.0mph /  8km/h 14% 0.00in /  0mm 1078.0 W/m2
13:15 92.8 °F /  33.8 °C 36.7 °F /  2.6 °C 29.54in /  1000.2hPa North 4.9mph /  7.9km/h 8.0mph /  12.9km/h 14% 0.00in /  0mm 1095.0 W/m2
13:20 93.4 °F /  34.1 °C 37.0 °F /  2.8 °C 29.54in /  1000.2hPa WNW 4.0mph /  6.4km/h 6.0mph /  9.7km/h 14% 0.00in /  0mm 1032.0 W/m2
13:25 93.6 °F /  34.2 °C 37.2 °F /  2.9 °C 29.54in /  1000.2hPa Calm   5.0mph /  8km/h 14% 0.00in /  0mm 1088.0 W/m2
13:30 93.7 °F /  34.3 °C 37.4 °F /  3 °C 29.54in /  1000.2hPa West 2.0mph /  3.2km/h 7.0mph /  11.3km/h 14% 0.00in /  0mm 1067.0 W/m2
13:36 93.6 °F /  34.2 °C 35.4 °F /  1.9 °C 29.54in /  1000.2hPa NNW 2.0mph /  3.2km/h 3.0mph /  4.8km/h 13% 0.00in /  0mm 1076.0 W/m2
13:41 93.6 °F /  34.2 °C 35.4 °F /  1.9 °C 29.53in /  999.9hPa WSW 2.9mph /  4.7km/h 3.0mph /  4.8km/h 13% 0.00in /  0mm 1048.0 W/m2
13:46 93.4 °F /  34.1 °C 35.2 °F /  1.8 °C 29.54in /  1000.2hPa SE 4.0mph /  6.4km/h 9.0mph /  14.5km/h 13% 0.00in /  0mm 1023.0 W/m2
13:51 93.4 °F /  34.1 °C 35.2 °F /  1.8 °C 29.54in /  1000.2hPa West 4.9mph /  7.9km/h 6.0mph /  9.7km/h 13% 0.00in /  0mm 1039.0 W/m2
13:56 93.4 °F /  34.1 °C 33.3 °F /  0.7 °C 29.53in /  999.9hPa Calm   5.0mph /  8km/h 12% 0.00in /  0mm 993.0 W/m2
14:01 93.6 °F /  34.2 °C 33.3 °F /  0.7 °C 29.53in /  999.9hPa NNW 2.9mph /  4.7km/h 3.0mph /  4.8km/h 12% 0.00in /  0mm 949.0 W/m2
14:06 93.9 °F /  34.4 °C 33.6 °F /  0.9 °C 29.53in /  999.9hPa West 0.9mph /  1.4km/h 7.0mph /  11.3km/h 12% 0.00in /  0mm 1053.0 W/m2
14:11 94.5 °F /  34.7 °C 34.0 °F /  1.1 °C 29.53in /  999.9hPa NW 0.9mph /  1.4km/h 7.0mph /  11.3km/h 12% 0.00in /  0mm 1046.0 W/m2
14:16 94.8 °F /  34.9 °C 34.3 °F /  1.3 °C 29.52in /  999.5hPa Calm   4.0mph /  6.4km/h 12% 0.00in /  0mm 1025.0 W/m2
14:21 94.8 °F /  34.9 °C 34.3 °F /  1.3 °C 29.53in /  999.9hPa North 4.0mph /  6.4km/h 8.0mph /  12.9km/h 12% 0.00in /  0mm 1018.0 W/m2
14:27 94.8 °F /  34.9 °C 34.3 °F /  1.3 °C 29.52in /  999.5hPa NE 0.9mph /  1.4km/h 3.0mph /  4.8km/h 12% 0.00in /  0mm 1007.0 W/m2
14:32 93.9 °F /  34.4 °C 33.6 °F /  0.9 °C 29.52in /  999.5hPa WNW 0.9mph /  1.4km/h 6.0mph /  9.7km/h 12% 0.00in /  0mm 998.0 W/m2
14:37 94.1 °F /  34.5 °C 35.8 °F /  2.1 °C 29.52in /  999.5hPa NNW 2.0mph /  3.2km/h 4.0mph /  6.4km/h 13% 0.00in /  0mm 930.0 W/m2
14:42 94.6 °F /  34.8 °C 34.2 °F /  1.2 °C 29.51in /  999.2hPa NNW 2.9mph /  4.7km/h 6.0mph /  9.7km/h 12% 0.00in /  0mm 940.0 W/m2
14:47 94.8 °F /  34.9 °C 34.3 °F /  1.3 °C 29.51in /  999.2hPa SSW 0.9mph /  1.4km/h 5.0mph /  8km/h 12% 0.00in /  0mm 932.0 W/m2
14:52 94.6 °F /  34.8 °C 34.2 °F /  1.2 °C 29.51in /  999.2hPa Calm   5.0mph /  8km/h 12% 0.00in /  0mm 956.0 W/m2
14:57 95.0 °F /  35 °C 34.5 °F /  1.4 °C 29.51in /  999.2hPa NW 0.9mph /  1.4km/h 9.0mph /  14.5km/h 12% 0.00in /  0mm 958.0 W/m2
15:02 95.5 °F /  35.3 °C 34.9 °F /  1.6 °C 29.51in /  999.2hPa West 0.9mph /  1.4km/h 2.0mph /  3.2km/h 12% 0.00in /  0mm 944.0 W/m2
15:07 95.7 °F /  35.4 °C 35.1 °F /  1.7 °C 29.50in /  998.9hPa South 0.9mph /  1.4km/h 3.0mph /  4.8km/h 12% 0.00in /  0mm 932.0 W/m2
15:13 96.3 °F /  35.7 °C 35.4 °F /  1.9 °C 29.49in /  998.5hPa NNW 4.9mph /  7.9km/h 9.0mph /  14.5km/h 12% 0.00in /  0mm 919.0 W/m2
15:18 96.6 °F /  35.9 °C 35.8 °F /  2.1 °C 29.50in /  998.9hPa West 4.9mph /  7.9km/h 5.0mph /  8km/h 12% 0.00in /  0mm 905.0 W/m2
15:23 96.4 °F /  35.8 °C 35.6 °F /  2 °C 29.49in /  998.5hPa WSW 6.9mph /  11.1km/h 9.0mph /  14.5km/h 12% 0.00in /  0mm 911.0 W/m2
15:29 96.1 °F /  35.6 °C 35.2 °F /  1.8 °C 29.49in /  998.5hPa Calm   4.0mph /  6.4km/h 12% 0.00in /  0mm 912.0 W/m2
15:34 95.9 °F /  35.5 °C 35.1 °F /  1.7 °C 29.48in /  998.2hPa WNW 0.9mph /  1.4km/h 5.0mph /  8km/h 12% 0.00in /  0mm 879.0 W/m2
15:39 95.7 °F /  35.4 °C 32.9 °F /  0.5 °C 29.49in /  998.5hPa WNW 0.9mph /  1.4km/h 3.0mph /  4.8km/h 11% 0.00in /  0mm 877.0 W/m2
15:44 95.7 °F /  35.4 °C 35.1 °F /  1.7 °C 29.48in /  998.2hPa NW 2.9mph /  4.7km/h 6.0mph /  9.7km/h 12% 0.00in /  0mm 854.0 W/m2
15:49 96.1 °F /  35.6 °C 35.2 °F /  1.8 °C 29.48in /  998.2hPa North 2.0mph /  3.2km/h 8.0mph /  12.9km/h 12% 0.00in /  0mm 837.0 W/m2
15:54 96.4 °F /  35.8 °C 35.6 °F /  2 °C 29.48in /  998.2hPa South 0.9mph /  1.4km/h 6.0mph /  9.7km/h 12% 0.00in /  0mm 826.0 W/m2
15:59 96.3 °F /  35.7 °C 35.4 °F /  1.9 °C 29.47in /  997.9hPa North 4.0mph /  6.4km/h 7.0mph /  11.3km/h 12% 0.00in /  0mm 803.0 W/m2
16:04 96.4 °F /  35.8 °C 35.6 °F /  2 °C 29.47in /  997.9hPa North 0.9mph /  1.4km/h 5.0mph /  8km/h 12% 0.00in /  0mm 780.0 W/m2
16:10 97.2 °F /  36.2 °C 36.1 °F /  2.3 °C 29.47in /  997.9hPa West 2.9mph /  4.7km/h 13.0mph /  20.9km/h 12% 0.00in /  0mm 717.0 W/m2
16:15 97.3 °F /  36.3 °C 36.3 °F /  2.4 °C 29.47in /  997.9hPa NNW 2.9mph /  4.7km/h 13.0mph /  20.9km/h 12% 0.00in /  0mm 731.0 W/m2
16:20 97.2 °F /  36.2 °C 36.1 °F /  2.3 °C 29.47in /  997.9hPa West 2.0mph /  3.2km/h 6.0mph /  9.7km/h 12% 0.00in /  0mm 118.0 W/m2
16:25 96.3 °F /  35.7 °C 35.4 °F /  1.9 °C 29.46in /  997.5hPa WNW 0.9mph /  1.4km/h 2.0mph /  3.2km/h 12% 0.00in /  0mm 429.0 W/m2
16:30 95.7 °F /  35.4 °C 37.0 °F /  2.8 °C 29.47in /  997.9hPa Calm   7.0mph /  11.3km/h 13% 0.00in /  0mm 728.0 W/m2
16:35 95.5 °F /  35.3 °C 36.9 °F /  2.7 °C 29.46in /  997.5hPa WNW 0.9mph /  1.4km/h 8.0mph /  12.9km/h 13% 0.00in /  0mm 694.0 W/m2
16:40 95.7 °F /  35.4 °C 37.0 °F /  2.8 °C 29.46in /  997.5hPa WNW 2.0mph /  3.2km/h 7.0mph /  11.3km/h 13% 0.00in /  0mm 663.0 W/m2
16:45 95.7 °F /  35.4 °C 37.0 °F /  2.8 °C 29.46in /  997.5hPa North 6.9mph /  11.1km/h 7.0mph /  11.3km/h 13% 0.00in /  0mm 626.0 W/m2
16:50 95.5 °F /  35.3 °C 36.9 °F /  2.7 °C 29.46in /  997.5hPa Calm   7.0mph /  11.3km/h 13% 0.00in /  0mm 621.0 W/m2
16:56 95.5 °F /  35.3 °C 36.9 °F /  2.7 °C 29.45in /  997.2hPa SSW 0.9mph /  1.4km/h 7.0mph /  11.3km/h 13% 0.00in /  0mm 60.0 W/m2
17:01 94.8 °F /  34.9 °C 36.3 °F /  2.4 °C 29.46in /  997.5hPa NNW 2.0mph /  3.2km/h 5.0mph /  8km/h 13% 0.00in /  0mm 63.0 W/m2
17:06 94.1 °F /  34.5 °C 35.8 °F /  2.1 °C 29.45in /  997.2hPa Calm   2.0mph /  3.2km/h 13% 0.00in /  0mm 575.0 W/m2
17:11 93.9 °F /  34.4 °C 35.6 °F /  2 °C 29.45in /  997.2hPa NNW 0.9mph /  1.4km/h 7.0mph /  11.3km/h 13% 0.00in /  0mm 559.0 W/m2
17:16 94.6 °F /  34.8 °C 36.1 °F /  2.3 °C 29.45in /  997.2hPa Calm   3.0mph /  4.8km/h 13% 0.00in /  0mm 540.0 W/m2
17:21 95.2 °F /  35.1 °C 36.7 °F /  2.6 °C 29.45in /  997.2hPa WSW 2.0mph /  3.2km/h 3.0mph /  4.8km/h 13% 0.00in /  0mm 526.0 W/m2
17:26 95.5 °F /  35.3 °C 36.9 °F /  2.7 °C 29.45in /  997.2hPa ENE 0.9mph /  1.4km/h 6.0mph /  9.7km/h 13% 0.00in /  0mm 501.0 W/m2
17:31 95.4 °F /  35.2 °C 36.7 °F /  2.6 °C 29.45in /  997.2hPa NNW 2.0mph /  3.2km/h 8.0mph /  12.9km/h 13% 0.00in /  0mm 475.0 W/m2
17:36 95.0 °F /  35 °C 36.5 °F /  2.5 °C 29.45in /  997.2hPa North 2.0mph /  3.2km/h 8.0mph /  12.9km/h 13% 0.00in /  0mm 459.0 W/m2
17:42 94.5 °F /  34.7 °C 36.0 °F /  2.2 °C 29.45in /  997.2hPa Calm   7.0mph /  11.3km/h 13% 0.00in /  0mm 443.0 W/m2
17:47 94.5 °F /  34.7 °C 36.0 °F /  2.2 °C 29.45in /  997.2hPa WSW 4.0mph /  6.4km/h 5.0mph /  8km/h 13% 0.00in /  0mm 422.0 W/m2
17:53 94.6 °F /  34.8 °C 36.1 °F /  2.3 °C 29.45in /  997.2hPa WSW 2.0mph /  3.2km/h 11.0mph /  17.7km/h 13% 0.00in /  0mm 403.0 W/m2
17:58 94.5 °F /  34.7 °C 36.0 °F /  2.2 °C 29.45in /  997.2hPa South 8.1mph /  13km/h 10.0mph /  16.1km/h 13% 0.00in /  0mm 373.0 W/m2
18:03 94.5 °F /  34.7 °C 36.0 °F /  2.2 °C 29.45in /  997.2hPa Calm   5.0mph /  8km/h 13% 0.00in /  0mm 360.0 W/m2
18:08 94.8 °F /  34.9 °C 36.3 °F /  2.4 °C 29.45in /  997.2hPa West 2.9mph /  4.7km/h 3.0mph /  4.8km/h 13% 0.00in /  0mm 343.0 W/m2
18:13 94.8 °F /  34.9 °C 36.3 °F /  2.4 °C 29.45in /  997.2hPa WSW 4.0mph /  6.4km/h 11.0mph /  17.7km/h 13% 0.00in /  0mm 306.0 W/m2
18:18 94.1 °F /  34.5 °C 37.6 °F /  3.1 °C 29.46in /  997.5hPa SW 0.9mph /  1.4km/h 5.0mph /  8km/h 14% 0.00in /  0mm 274.0 W/m2
18:23 93.6 °F /  34.2 °C 37.2 °F /  2.9 °C 29.46in /  997.5hPa West 0.9mph /  1.4km/h 7.0mph /  11.3km/h 14% 0.00in /  0mm 232.0 W/m2
18:29 93.0 °F /  33.9 °C 36.9 °F /  2.7 °C 29.46in /  997.5hPa SSW 6.0mph /  9.7km/h 8.0mph /  12.9km/h 14% 0.00in /  0mm 230.0 W/m2
18:34 92.8 °F /  33.8 °C 38.5 °F /  3.6 °C 29.46in /  997.5hPa Calm   6.0mph /  9.7km/h 15% 0.00in /  0mm 213.0 W/m2
18:39 92.8 °F /  33.8 °C 38.5 °F /  3.6 °C 29.47in /  997.9hPa WSW 4.9mph /  7.9km/h 8.0mph /  12.9km/h 15% 0.00in /  0mm 204.0 W/m2
18:44 92.5 °F /  33.6 °C 38.1 °F /  3.4 °C 29.47in /  997.9hPa West 6.0mph /  9.7km/h 6.0mph /  9.7km/h 15% 0.00in /  0mm 185.0 W/m2
18:49 92.3 °F /  33.5 °C 37.9 °F /  3.3 °C 29.47in /  997.9hPa NW 4.0mph /  6.4km/h 9.0mph /  14.5km/h 15% 0.00in /  0mm 149.0 W/m2
18:54 91.9 °F /  33.3 °C 37.8 °F /  3.2 °C 29.47in /  997.9hPa WSW 2.9mph /  4.7km/h 7.0mph /  11.3km/h 15% 0.00in /  0mm 91.0 W/m2
18:59 91.6 °F /  33.1 °C 37.4 °F /  3 °C 29.47in /  997.9hPa West 6.9mph /  11.1km/h 7.0mph /  11.3km/h 15% 0.00in /  0mm 58.0 W/m2
19:04 91.2 °F /  32.9 °C 37.0 °F /  2.8 °C 29.47in /  997.9hPa West 0.9mph /  1.4km/h 8.0mph /  12.9km/h 15% 0.00in /  0mm 54.0 W/m2
19:09 90.7 °F /  32.6 °C 38.3 °F /  3.5 °C 29.48in /  998.2hPa SW 10.1mph /  16.3km/h 13.0mph /  20.9km/h 16% 0.00in /  0mm 46.0 W/m2
19:14 90.0 °F /  32.2 °C 37.8 °F /  3.2 °C 29.48in /  998.2hPa WSW 2.0mph /  3.2km/h 8.0mph /  12.9km/h 16% 0.00in /  0mm 39.0 W/m2
19:20 89.4 °F /  31.9 °C 37.4 °F /  3 °C 29.49in /  998.5hPa South 2.9mph /  4.7km/h 5.0mph /  8km/h 16% 0.00in /  0mm 39.0 W/m2
19:25 88.5 °F /  31.4 °C 39.6 °F /  4.2 °C 29.50in /  998.9hPa South 4.0mph /  6.4km/h 13.0mph /  20.9km/h 18% 0.00in /  0mm 26.0 W/m2
19:30 87.4 °F /  30.8 °C 40.1 °F /  4.5 °C 29.49in /  998.5hPa SSE 0.9mph /  1.4km/h 11.0mph /  17.7km/h 19% 0.00in /  0mm 18.0 W/m2
19:35 86.5 °F /  30.3 °C 40.6 °F /  4.8 °C 29.50in /  998.9hPa SW 4.9mph /  7.9km/h 10.0mph /  16.1km/h 20% 0.00in /  0mm 11.0 W/m2
19:40 85.6 °F /  29.8 °C 39.9 °F /  4.4 °C 29.49in /  998.5hPa SW 2.9mph /  4.7km/h 11.0mph /  17.7km/h 20% 0.00in /  0mm 5.0 W/m2
19:45 85.3 °F /  29.6 °C 39.7 °F /  4.3 °C 29.50in /  998.9hPa WSW 6.9mph /  11.1km/h 9.0mph /  14.5km/h 20% 0.00in /  0mm 0.0 W/m2
19:50 84.9 °F /  29.4 °C 39.4 °F /  4.1 °C 29.51in /  999.2hPa SSW 8.1mph /  13km/h 18.0mph /  29km/h 20% 0.00in /  0mm 0.0 W/m2
19:55 84.6 °F /  29.2 °C 40.3 °F /  4.6 °C 29.51in /  999.2hPa West 10.1mph /  16.3km/h 10.1mph /  16.3km/h 21% 0.00in /  0mm 0.0 W/m2
20:01 83.8 °F /  28.8 °C 41.0 °F /  5 °C 29.51in /  999.2hPa WSW 0.9mph /  1.4km/h 5.0mph /  8km/h 22% 0.00in /  0mm 0.0 W/m2
20:06 83.7 °F /  28.7 °C 40.8 °F /  4.9 °C 29.51in /  999.2hPa Calm   1.0mph /  1.6km/h 22% 0.00in /  0mm 0.0 W/m2
20:11 83.5 °F /  28.6 °C 39.4 °F /  4.1 °C 29.51in /  999.2hPa SW 0.9mph /  1.4km/h 6.0mph /  9.7km/h 21% 0.00in /  0mm 0.0 W/m2
20:17 83.5 °F /  28.6 °C 39.4 °F /  4.1 °C 29.52in /  999.5hPa SSW 0.9mph /  1.4km/h 5.0mph /  8km/h 21% 0.00in /  0mm 0.0 W/m2
20:22 83.5 °F /  28.6 °C 39.4 °F /  4.1 °C 29.52in /  999.5hPa South 0.9mph /  1.4km/h 4.0mph /  6.4km/h 21% 0.00in /  0mm 0.0 W/m2
20:27 83.5 °F /  28.6 °C 39.4 °F /  4.1 °C 29.53in /  999.9hPa Calm   4.0mph /  6.4km/h 21% 0.00in /  0mm 0.0 W/m2
20:32 83.3 °F /  28.5 °C 40.5 °F /  4.7 °C 29.53in /  999.9hPa SW 0.9mph /  1.4km/h 6.0mph /  9.7km/h 22% 0.00in /  0mm 0.0 W/m2
20:37 83.1 °F /  28.4 °C 40.3 °F /  4.6 °C 29.54in /  1000.2hPa Calm   2.0mph /  3.2km/h 22% 0.00in /  0mm 0.0 W/m2
20:42 82.9 °F /  28.3 °C 40.1 °F /  4.5 °C 29.54in /  1000.2hPa WSW 2.9mph /  4.7km/h 8.0mph /  12.9km/h 22% 0.00in /  0mm 0.0 W/m2
20:47 82.6 °F /  28.1 °C 39.9 °F /  4.4 °C 29.54in /  1000.2hPa SW 0.9mph /  1.4km/h 3.0mph /  4.8km/h 22% 0.00in /  0mm 0.0 W/m2
20:53 82.2 °F /  27.9 °C 40.8 °F /  4.9 °C 29.55in /  1000.6hPa WSW 4.0mph /  6.4km/h 7.0mph /  11.3km/h 23% 0.00in /  0mm 0.0 W/m2
20:58 81.9 °F /  27.7 °C 40.5 °F /  4.7 °C 29.55in /  1000.6hPa WSW 4.9mph /  7.9km/h 5.0mph /  8km/h 23% 0.00in /  0mm 0.0 W/m2
21:04 81.7 °F /  27.6 °C 40.3 °F /  4.6 °C 29.55in /  1000.6hPa Calm   3.0mph /  4.8km/h 23% 0.00in /  0mm 0.0 W/m2
21:09 81.3 °F /  27.4 °C 39.9 °F /  4.4 °C 29.55in /  1000.6hPa SW 2.9mph /  4.7km/h 5.0mph /  8km/h 23% 0.00in /  0mm 0.0 W/m2
21:14 81.1 °F /  27.3 °C 41.0 °F /  5 °C 29.56in /  1000.9hPa Calm   5.0mph /  8km/h 24% 0.00in /  0mm 0.0 W/m2
21:19 81.0 °F /  27.2 °C 40.8 °F /  4.9 °C 29.56in /  1000.9hPa Calm   3.0mph /  4.8km/h 24% 0.00in /  0mm 0.0 W/m2
21:24 80.6 °F /  27 °C 40.5 °F /  4.7 °C 29.56in /  1000.9hPa SW 0.9mph /  1.4km/h 4.0mph /  6.4km/h 24% 0.00in /  0mm 0.0 W/m2
21:29 80.4 °F /  26.9 °C 40.3 °F /  4.6 °C 29.56in /  1000.9hPa West 2.0mph /  3.2km/h 7.0mph /  11.3km/h 24% 0.00in /  0mm 0.0 W/m2
21:34 80.2 °F /  26.8 °C 41.2 °F /  5.1 °C 29.56in /  1000.9hPa WSW 4.0mph /  6.4km/h 5.0mph /  8km/h 25% 0.00in /  0mm 0.0 W/m2
21:39 80.1 °F /  26.7 °C 41.0 °F /  5 °C 29.57in /  1001.2hPa SSW 2.0mph /  3.2km/h 3.0mph /  4.8km/h 25% 0.00in /  0mm 0.0 W/m2
21:45 79.9 °F /  26.6 °C 41.0 °F /  5 °C 29.57in /  1001.2hPa Calm   2.0mph /  3.2km/h 25% 0.00in /  0mm 0.0 W/m2
21:50 79.7 °F /  26.5 °C 40.8 °F /  4.9 °C 29.57in /  1001.2hPa SW 2.9mph /  4.7km/h 7.0mph /  11.3km/h 25% 0.00in /  0mm 0.0 W/m2
21:55 79.5 °F /  26.4 °C 40.6 °F /  4.8 °C 29.57in /  1001.2hPa SW 0.9mph /  1.4km/h 4.0mph /  6.4km/h 25% 0.00in /  0mm 0.0 W/m2
22:00 79.3 °F /  26.3 °C 40.5 °F /  4.7 °C 29.57in /  1001.2hPa WSW 2.9mph /  4.7km/h 3.0mph /  4.8km/h 25% 0.00in /  0mm 0.0 W/m2
22:05 79.0 °F /  26.1 °C 41.2 °F /  5.1 °C 29.57in /  1001.2hPa SW 2.0mph /  3.2km/h 3.0mph /  4.8km/h 26% 0.00in /  0mm 0.0 W/m2
22:10 79.0 °F /  26.1 °C 41.2 °F /  5.1 °C 29.57in /  1001.2hPa SW 0.9mph /  1.4km/h 5.0mph /  8km/h 26% 0.00in /  0mm 0.0 W/m2
22:15 78.6 °F /  25.9 °C 40.8 °F /  4.9 °C 29.56in /  1000.9hPa Calm   3.0mph /  4.8km/h 26% 0.00in /  0mm 0.0 W/m2
22:20 78.6 °F /  25.9 °C 40.8 °F /  4.9 °C 29.57in /  1001.2hPa Calm   3.0mph /  4.8km/h 26% 0.00in /  0mm 0.0 W/m2
22:26 78.6 °F /  25.9 °C 40.8 °F /  4.9 °C 29.57in /  1001.2hPa SW 0.9mph /  1.4km/h 1.0mph /  1.6km/h 26% 0.00in /  0mm 0.0 W/m2
22:31 78.6 °F /  25.9 °C 40.8 °F /  4.9 °C 29.57in /  1001.2hPa Calm     26% 0.00in /  0mm 0.0 W/m2
22:36 78.4 °F /  25.8 °C 40.6 °F /  4.8 °C 29.57in /  1001.2hPa Calm     26% 0.00in /  0mm 0.0 W/m2
22:41 78.3 °F /  25.7 °C 40.6 °F /  4.8 °C 29.57in /  1001.2hPa Calm   1.0mph /  1.6km/h 26% 0.00in /  0mm 0.0 W/m2
22:46 78.1 °F /  25.6 °C 41.4 °F /  5.2 °C 29.57in /  1001.2hPa ESE 0.9mph /  1.4km/h 2.0mph /  3.2km/h 27% 0.00in /  0mm 0.0 W/m2
22:51 77.7 °F /  25.4 °C 41.0 °F /  5 °C 29.57in /  1001.2hPa ESE 0.9mph /  1.4km/h 2.0mph /  3.2km/h 27% 0.00in /  0mm 0.0 W/m2
22:56 77.5 °F /  25.3 °C 41.0 °F /  5 °C 29.57in /  1001.2hPa SE 0.9mph /  1.4km/h 3.0mph /  4.8km/h 27% 0.00in /  0mm 0.0 W/m2
23:01 77.4 °F /  25.2 °C 40.8 °F /  4.9 °C 29.57in /  1001.2hPa Calm   2.0mph /  3.2km/h 27% 0.00in /  0mm 0.0 W/m2
23:06 77.2 °F /  25.1 °C 40.6 °F /  4.8 °C 29.57in /  1001.2hPa Calm   3.0mph /  4.8km/h 27% 0.00in /  0mm 0.0 W/m2
23:11 76.8 °F /  24.9 °C 40.3 °F /  4.6 °C 29.57in /  1001.2hPa Calm   1.0mph /  1.6km/h 27% 0.00in /  0mm 0.0 W/m2
23:17 76.6 °F /  24.8 °C 41.2 °F /  5.1 °C 29.57in /  1001.2hPa Calm     28% 0.00in /  0mm 0.0 W/m2
23:22 76.5 °F /  24.7 °C 41.0 °F /  5 °C 29.58in /  1001.6hPa Calm     28% 0.00in /  0mm 0.0 W/m2
23:27 76.3 °F /  24.6 °C 40.8 °F /  4.9 °C 29.58in /  1001.6hPa Calm   1.0mph /  1.6km/h 28% 0.00in /  0mm 0.0 W/m2
23:33 76.1 °F /  24.5 °C 40.6 °F /  4.8 °C 29.58in /  1001.6hPa SE 0.9mph /  1.4km/h 1.0mph /  1.6km/h 28% 0.00in /  0mm 0.0 W/m2
23:38 75.9 °F /  24.4 °C 40.5 °F /  4.7 °C 29.58in /  1001.6hPa Calm   1.0mph /  1.6km/h 28% 0.00in /  0mm 0.0 W/m2
23:43 75.7 °F /  24.3 °C 41.2 °F /  5.1 °C 29.58in /  1001.6hPa Calm     29% 0.00in /  0mm 0.0 W/m2
23:48 75.6 °F /  24.2 °C 41.0 °F /  5 °C 29.58in /  1001.6hPa Calm     29% 0.00in /  0mm 0.0 W/m2
23:53 75.4 °F /  24.1 °C 41.0 °F /  5 °C 29.58in /  1001.6hPa Calm     29% 0.00in /  0mm 0.0 W/m2
23:58 75.0 °F /  23.9 °C 40.6 °F /  4.8 °C 29.58in /  1001.6hPa Calm     29% 0.00in /  0mm 0.0 W/m2
Olympia, Windhoek, Namibia
Compliments of Weather Underground - 3.25 mb